Time;durP1;ratioP1;P1;durP2;ratioP2;P2;SDS_P1;SDS_P2;PMS_P1;PMS_P2;Temp;Humidity;BMP_temperature;BMP_pressure;BME280_temperature;BME280_humidity;BME280_pressure;Samples;Min_cycle;Max_cycle;Signal;HPM_P1;HPM_P2
2024/03/11 00:01:06;;;;;;;0.90;0.90;;;;;;;-145.69;68.99;52313.69;5112746;28;20556;-78
2024/03/11 00:03:33;;;;;;;1.47;1.00;;;;;;;-145.69;69.13;52303.78;5113035;28;20333;-78
2024/03/11 00:06:01;;;;;;;3.17;1.07;;;;;;;-145.69;70.04;52293.88;5113172;28;20283;-78
2024/03/11 00:08:27;;;;;;;2.10;1.37;;;;;;;-145.69;69.44;52264.16;5112939;28;20197;-80
2024/03/11 00:10:59;;;;;;;1.10;1.00;;;;;;;-145.69;70.65;52297.84;5113012;28;20205;-80
2024/03/11 00:13:32;;;;;;;0.90;0.70;;;;;;;-145.69;69.80;52307.75;5132242;28;20224;-79
2024/03/11 00:15:59;;;;;;;1.90;1.13;;;;;;;-145.69;70.18;52313.69;5133527;28;20257;-77
2024/03/11 00:18:25;;;;;;;1.17;0.90;;;;;;;-145.69;69.99;52309.72;5132823;28;20236;-77
2024/03/11 00:20:54;;;;;;;1.03;0.83;;;;;;;-145.69;69.88;52289.91;5132906;27;20211;-80
2024/03/11 00:23:21;;;;;;;0.83;0.83;;;;;;;-145.69;70.01;52303.78;5133163;27;20201;-80
2024/03/11 00:25:47;;;;;;;1.47;1.00;;;;;;;-145.69;70.08;52272.09;5133184;27;20203;-79
2024/03/11 00:28:17;;;;;;;1.90;0.90;;;;;;;-145.69;70.05;52262.19;5116175;28;20206;-79
2024/03/11 00:30:44;;;;;;;1.00;0.90;;;;;;;-145.69;70.27;52297.84;5112361;28;20734;-80
2024/03/11 00:33:10;;;;;;;0.97;0.90;;;;;;;-145.69;70.46;52258.22;5112633;27;20209;-79
2024/03/11 00:35:38;;;;;;;0.80;0.80;;;;;;;-145.69;70.64;52329.53;5123657;27;20225;-79
2024/03/11 00:38:07;;;;;;;1.23;1.10;;;;;;;-145.69;71.75;52246.34;5133018;27;20652;-78
2024/03/11 00:40:34;;;;;;;1.90;0.87;;;;;;;-145.69;71.03;52278.03;5132436;28;20201;-79
2024/03/11 00:43:01;;;;;;;1.30;1.10;;;;;;;-145.69;71.13;52311.69;5133021;27;20201;-79
2024/03/11 00:45:28;;;;;;;1.80;1.00;;;;;;;-145.69;70.65;52337.44;5111920;27;20577;-78
2024/03/11 00:47:57;;;;;;;1.03;0.80;;;;;;;-145.69;70.88;52297.84;5133325;27;20197;-78
2024/03/11 00:50:24;;;;;;;1.27;0.90;;;;;;;-145.69;70.72;52282.00;5132631;27;20263;-78
2024/03/11 00:52:51;;;;;;;4.03;0.87;;;;;;;-145.69;70.90;52315.66;5132873;27;20208;-78
2024/03/11 00:55:17;;;;;;;1.10;1.00;;;;;;;-145.69;71.21;52274.06;5132624;27;20236;-79
2024/03/11 00:57:49;;;;;;;0.97;0.93;;;;;;;-145.69;70.81;52274.06;5134736;27;20201;-79
2024/03/11 01:00:16;;;;;;;1.00;0.90;;;;;;;-145.69;70.86;52293.88;5136628;27;20719;-79
2024/03/11 01:02:44;;;;;;;1.10;0.97;;;;;;;-145.69;70.84;52317.66;5116462;27;20201;-79
2024/03/11 01:05:13;;;;;;;1.07;1.00;;;;;;;-145.69;71.08;52307.75;5114962;28;20219;-79
2024/03/11 01:07:40;;;;;;;1.00;0.90;;;;;;;-145.69;70.66;52319.63;5115812;28;20202;-79
2024/03/11 01:10:07;;;;;;;0.70;0.70;;;;;;;-145.69;70.06;52305.75;5115878;28;20322;-79
2024/03/11 01:12:34;;;;;;;1.00;0.90;;;;;;;-145.69;70.73;52262.19;5133910;27;20207;-78
2024/03/11 01:15:01;;;;;;;0.73;0.73;;;;;;;-145.69;70.46;52323.59;5135924;27;20224;-78
2024/03/11 01:17:28;;;;;;;4.17;1.00;;;;;;;-145.69;70.57;52317.66;5135110;27;20204;-79
2024/03/11 01:19:55;;;;;;;0.80;0.80;;;;;;;-145.69;70.90;52297.84;5115315;28;20194;-78
2024/03/11 01:22:22;;;;;;;2.13;1.20;;;;;;;-145.69;71.21;52305.75;5115460;28;20201;-78
2024/03/11 01:24:51;;;;;;;1.13;1.03;;;;;;;-145.69;70.77;52317.66;5115618;28;20197;-79
2024/03/11 01:27:19;;;;;;;0.80;0.80;;;;;;;-145.69;70.95;52287.94;5115809;28;20201;-78
2024/03/11 01:29:46;;;;;;;0.80;0.80;;;;;;;-145.69;70.79;52325.56;5115760;28;20277;-78
2024/03/11 01:32:16;;;;;;;5.23;1.00;;;;;;;-145.69;70.96;52325.56;5115351;28;20670;-78
2024/03/11 01:34:42;;;;;;;2.50;0.90;;;;;;;-145.69;70.58;52293.88;5115831;27;20244;-79
2024/03/11 01:37:11;;;;;;;0.90;0.90;;;;;;;-145.69;71.19;52329.53;5115392;28;20221;-79
2024/03/11 01:39:45;;;;;;;1.03;0.70;;;;;;;-145.69;70.80;52327.53;5115321;28;20208;-78
2024/03/11 01:42:14;;;;;;;1.10;1.00;;;;;;;-145.69;70.61;52293.88;5123250;27;20193;-79
2024/03/11 01:44:43;;;;;;;0.93;0.90;;;;;;;-145.69;70.63;52278.03;5124581;27;20201;-79
2024/03/11 01:47:10;;;;;;;0.97;0.90;;;;;;;-145.69;70.63;52280.00;5135636;27;20208;-78
2024/03/11 01:49:37;;;;;;;0.90;0.90;;;;;;;-145.69;71.25;52289.91;5135548;27;20229;-78
2024/03/11 01:52:07;;;;;;;0.60;0.60;;;;;;;-145.69;71.03;52293.88;5129154;27;20201;-78
2024/03/11 01:54:35;;;;;;;1.03;0.80;;;;;;;-145.69;71.10;52291.91;5115059;28;20221;-78
2024/03/11 01:57:04;;;;;;;2.60;0.93;;;;;;;-145.69;71.52;52319.63;5114792;28;20238;-78
2024/03/11 01:59:37;;;;;;;1.13;0.90;;;;;;;-145.69;70.70;52299.81;5115002;28;20567;-78
2024/03/11 02:02:07;;;;;;;1.47;0.80;;;;;;;-145.69;71.05;52311.69;5114998;28;20197;-79
2024/03/11 02:04:34;;;;;;;0.97;0.90;;;;;;;-145.69;71.43;52313.69;5114818;28;20563;-78
2024/03/11 02:07:00;;;;;;;0.83;0.83;;;;;;;-145.69;70.92;52278.03;5114831;28;20292;-78
2024/03/11 02:09:28;;;;;;;3.77;1.10;;;;;;;-145.69;71.21;52301.81;5114907;27;20237;-80
2024/03/11 02:11:56;;;;;;;0.80;0.80;;;;;;;-145.69;71.30;52315.66;5125605;27;20200;-78
2024/03/11 02:14:23;;;;;;;0.90;0.90;;;;;;;-145.69;70.46;52278.03;5134857;27;20223;-80
2024/03/11 02:16:51;;;;;;;1.90;1.20;;;;;;;-145.69;71.41;52301.81;5134757;27;20257;-78
2024/03/11 02:19:21;;;;;;;1.10;1.00;;;;;;;-145.69;71.79;52293.88;5135418;27;20200;-79
2024/03/11 02:21:51;;;;;;;0.80;0.80;;;;;;;-145.69;70.98;52343.38;5135187;27;20196;-79
2024/03/11 02:24:19;;;;;;;0.70;0.70;;;;;;;-145.69;71.69;52278.03;5134916;27;20258;-79
2024/03/11 02:26:48;;;;;;;1.03;0.90;;;;;;;-145.69;71.53;52305.75;5134354;27;20197;-79
2024/03/11 02:29:16;;;;;;;3.43;0.80;;;;;;;-145.69;72.70;52297.84;5134959;27;20708;-79
2024/03/11 02:31:43;;;;;;;0.97;0.90;;;;;;;-145.69;72.00;52305.75;5134724;27;20555;-79
2024/03/11 02:34:11;;;;;;;0.80;0.80;;;;;;;-145.69;71.91;52297.84;5134346;27;20236;-79
2024/03/11 02:36:37;;;;;;;1.10;0.90;;;;;;;-145.69;73.09;52299.81;5134944;27;20220;-78
2024/03/11 02:39:05;;;;;;;1.17;1.07;;;;;;;-145.69;71.92;52293.88;5134697;27;20655;-79
2024/03/11 02:41:33;;;;;;;0.90;0.90;;;;;;;-145.69;71.77;52305.75;5134268;27;20197;-78
2024/03/11 02:44:00;;;;;;;0.90;0.90;;;;;;;-145.69;72.21;52307.75;5120272;27;20197;-79
2024/03/11 02:46:27;;;;;;;0.87;0.87;;;;;;;-145.69;72.91;52309.72;5114104;28;20319;-78
2024/03/11 02:48:53;;;;;;;1.17;1.07;;;;;;;-145.69;72.67;52282.00;5113678;28;20289;-78
2024/03/11 02:51:21;;;;;;;3.53;0.93;;;;;;;-145.69;71.95;52301.81;5113902;28;20225;-78
2024/03/11 02:53:47;;;;;;;0.80;0.80;;;;;;;-145.69;72.09;52323.59;5113946;28;20200;-79
2024/03/11 02:56:14;;;;;;;0.90;0.90;;;;;;;-145.69;72.15;52293.88;5113736;28;20730;-78
2024/03/11 02:58:47;;;;;;;2.23;1.33;;;;;;;-145.69;73.44;52297.84;5113826;28;20276;-78
2024/03/11 03:01:13;;;;;;;0.70;0.70;;;;;;;-145.69;74.66;52355.28;5114344;27;20198;-77
2024/03/11 03:03:40;;;;;;;0.90;0.90;;;;;;;-145.69;72.71;52321.59;5127138;27;20201;-79
2024/03/11 03:06:07;;;;;;;1.10;0.90;;;;;;;-145.69;72.93;52285.97;5134133;27;20295;-78
2024/03/11 03:08:33;;;;;;;3.43;1.10;;;;;;;-145.69;73.62;52285.97;5133652;27;20197;-77
2024/03/11 03:11:01;;;;;;;1.50;0.90;;;;;;;-145.69;74.49;52319.63;5134106;27;20201;-77
2024/03/11 03:13:28;;;;;;;0.93;0.80;;;;;;;-145.69;73.78;52301.81;5133861;27;20197;-77
2024/03/11 03:15:59;;;;;;;1.40;0.80;;;;;;;-145.69;73.60;52325.56;5134247;27;20221;-78
2024/03/11 03:18:26;;;;;;;7.63;0.90;;;;;;;-145.69;73.63;52291.91;5115573;28;20206;-77
2024/03/11 03:20:52;;;;;;;0.80;0.80;;;;;;;-145.69;73.80;52337.44;5112919;28;20201;-77
2024/03/11 03:23:18;;;;;;;1.73;0.90;;;;;;;-145.69;72.95;52323.59;5113609;28;20197;-77
2024/03/11 03:25:45;;;;;;;1.33;0.70;;;;;;;-145.69;74.08;52289.91;5113004;28;20208;-78
2024/03/11 03:28:14;;;;;;;1.63;0.97;;;;;;;-145.69;74.38;52323.59;5113245;28;20209;-77
2024/03/11 03:30:42;;;;;;;0.77;0.77;;;;;;;-145.69;73.67;52301.81;5113356;28;20401;-77
2024/03/11 03:33:11;;;;;;;1.70;1.10;;;;;;;-145.69;73.23;52289.91;5122184;27;20574;-78
2024/03/11 03:35:38;;;;;;;2.60;0.80;;;;;;;-145.69;75.26;52301.81;5114204;27;20237;-78
2024/03/11 03:38:04;;;;;;;1.53;0.87;;;;;;;-145.69;74.26;52301.81;5122575;27;20224;-77
2024/03/11 03:40:31;;;;;;;0.87;0.87;;;;;;;-145.69;73.26;52323.59;5133480;27;20204;-77
2024/03/11 03:43:00;;;;;;;2.17;0.90;;;;;;;-145.69;73.32;52301.81;5133575;27;20204;-78
2024/03/11 03:45:27;;;;;;;0.90;0.90;;;;;;;-145.69;73.64;52283.97;5133279;27;20200;-77
2024/03/11 03:47:53;;;;;;;2.80;0.77;;;;;;;-145.69;74.41;52341.41;5133395;27;20196;-77
2024/03/11 03:50:24;;;;;;;0.80;0.80;;;;;;;-145.69;74.19;52293.88;5132847;27;20690;-77
2024/03/11 03:52:51;;;;;;;0.90;0.90;;;;;;;-145.69;73.72;52305.75;5113056;28;20300;-77
2024/03/11 03:55:27;;;;;;;1.50;0.70;;;;;;;-145.69;73.24;52333.47;5113168;28;20227;-77
2024/03/11 03:57:53;;;;;;;1.83;0.80;;;;;;;-145.69;74.07;52289.91;5112803;28;20616;-77
2024/03/11 04:00:20;;;;;;;1.80;1.00;;;;;;;-145.69;74.62;52323.59;5112794;28;20651;-77
2024/03/11 04:02:48;;;;;;;2.73;1.00;;;;;;;-145.69;74.26;52333.47;5118134;28;20656;-76
2024/03/11 04:05:14;;;;;;;0.80;0.80;;;;;;;-145.69;74.53;52295.84;5132764;27;20208;-77
2024/03/11 04:07:42;;;;;;;0.83;0.83;;;;;;;-145.69;74.74;52289.91;5129815;27;20201;-77
2024/03/11 04:10:12;;;;;;;2.00;0.83;;;;;;;-145.69;74.87;52329.53;5112913;28;20205;-77
2024/03/11 04:12:41;;;;;;;2.93;1.23;;;;;;;-145.69;75.08;52311.69;5132024;27;20249;-76
2024/03/11 04:15:16;;;;;;;5.23;1.13;;;;;;;-145.69;74.53;52293.88;5132915;27;20231;-78
2024/03/11 04:17:44;;;;;;;1.03;0.90;;;;;;;-145.69;73.71;52315.66;5133268;27;20223;-77
2024/03/11 04:20:11;;;;;;;3.07;0.90;;;;;;;-145.69;73.08;52301.81;5133445;27;20197;-77
2024/03/11 04:22:41;;;;;;;0.80;0.80;;;;;;;-145.69;74.96;52283.97;5134249;27;20257;-77
2024/03/11 04:25:15;;;;;;;2.67;1.10;;;;;;;-145.69;73.43;52315.66;5132123;27;20200;-77
2024/03/11 04:27:41;;;;;;;1.80;0.90;;;;;;;-145.69;73.28;52329.53;5133113;28;20192;-77
2024/03/11 04:30:09;;;;;;;0.90;0.90;;;;;;;-145.69;74.54;52321.59;5133116;27;20197;-76
2024/03/11 04:32:37;;;;;;;2.43;0.90;;;;;;;-145.69;73.95;52337.44;5133932;27;20617;-78
2024/03/11 04:35:04;;;;;;;0.87;0.87;;;;;;;-145.69;74.56;52305.75;5136859;27;20295;-78
2024/03/11 04:37:31;;;;;;;1.23;0.83;;;;;;;-145.69;74.84;52313.69;5136782;27;20197;-77
2024/03/11 04:39:58;;;;;;;0.90;0.90;;;;;;;-145.69;74.44;52291.91;5136728;27;20554;-77
2024/03/11 04:42:25;;;;;;;2.57;1.07;;;;;;;-145.69;74.89;52317.66;5127677;27;20205;-77
2024/03/11 04:44:52;;;;;;;1.00;0.97;;;;;;;-145.69;74.56;52333.47;5115902;28;20216;-77
2024/03/11 04:47:18;;;;;;;4.20;0.80;;;;;;;-145.69;74.29;52329.53;5116531;28;20202;-78
2024/03/11 04:49:45;;;;;;;1.30;1.00;;;;;;;-145.69;75.51;52329.53;5115972;28;20233;-78
2024/03/11 04:52:12;;;;;;;1.13;1.00;;;;;;;-145.69;75.30;52317.66;5116381;28;20590;-77
2024/03/11 04:54:38;;;;;;;1.60;1.17;;;;;;;-145.69;75.38;52305.75;5116308;28;20197;-78
2024/03/11 04:57:05;;;;;;;2.37;1.23;;;;;;;-145.69;74.69;52301.81;5118887;27;20208;-78
2024/03/11 04:59:32;;;;;;;1.63;1.00;;;;;;;-145.69;73.89;52317.66;5126104;27;20201;-78
2024/03/11 05:01:59;;;;;;;1.00;1.00;;;;;;;-145.69;73.52;52287.94;5135260;27;20193;-79
2024/03/11 05:04:25;;;;;;;1.13;0.97;;;;;;;-145.69;74.61;52301.81;5136731;27;20200;-78
2024/03/11 05:06:58;;;;;;;0.80;0.80;;;;;;;-145.69;73.78;52333.47;5136633;27;20208;-79
2024/03/11 05:09:24;;;;;;;5.43;1.10;;;;;;;-145.69;73.31;52341.41;5136431;27;20207;-76
2024/03/11 05:11:51;;;;;;;4.93;1.00;;;;;;;-145.69;73.63;52329.53;5136298;27;20554;-77
2024/03/11 05:14:18;;;;;;;1.60;1.00;;;;;;;-145.69;73.77;52301.81;5135654;27;20654;-77
2024/03/11 05:16:51;;;;;;;1.27;0.90;;;;;;;-145.69;75.52;52325.56;5124060;27;20264;-76
2024/03/11 05:19:17;;;;;;;0.80;0.80;;;;;;;-145.69;73.87;52305.75;5115562;28;20288;-76
2024/03/11 05:21:43;;;;;;;0.87;0.87;;;;;;;-145.69;73.60;52337.44;5115760;28;20198;-76
2024/03/11 05:24:10;;;;;;;2.20;0.90;;;;;;;-145.69;73.74;52321.59;5115490;28;20205;-76
2024/03/11 05:26:36;;;;;;;3.60;0.90;;;;;;;-145.69;74.57;52351.31;5115519;28;20213;-77
2024/03/11 05:29:03;;;;;;;3.13;1.00;;;;;;;-145.69;74.30;52337.44;5135099;27;20615;-77
2024/03/11 05:31:29;;;;;;;1.20;0.90;;;;;;;-145.69;74.14;52303.78;5135409;27;20201;-77
2024/03/11 05:33:57;;;;;;;1.00;0.90;;;;;;;-145.69;75.12;52329.53;5122042;27;20209;-77
2024/03/11 05:36:24;;;;;;;1.70;1.07;;;;;;;-145.69;75.13;52313.69;5126293;27;20224;-77
2024/03/11 05:38:50;;;;;;;1.33;1.00;;;;;;;-145.69;73.67;52337.44;5135738;27;20200;-77
2024/03/11 05:41:16;;;;;;;3.53;1.00;;;;;;;-145.69;74.65;52301.81;5135705;27;20201;-77
2024/03/11 05:43:43;;;;;;;1.30;1.00;;;;;;;-145.69;74.29;52297.84;5135373;27;20207;-77
2024/03/11 05:46:09;;;;;;;1.50;1.00;;;;;;;-145.69;75.71;52341.41;5135287;27;20201;-78
2024/03/11 05:48:38;;;;;;;4.20;0.87;;;;;;;-145.69;74.49;52333.47;5135503;27;20201;-77
2024/03/11 05:51:07;;;;;;;1.73;1.00;;;;;;;-145.69;74.07;52323.59;5134493;27;20228;-77
2024/03/11 05:53:34;;;;;;;1.27;0.90;;;;;;;-145.69;75.75;52355.28;5135158;27;20200;-77
2024/03/11 05:56:03;;;;;;;1.73;1.10;;;;;;;-145.69;74.90;52329.53;5135545;27;20229;-77
2024/03/11 05:58:30;;;;;;;2.20;1.27;;;;;;;-145.69;75.36;52341.41;5135201;27;20200;-77
2024/03/11 06:00:56;;;;;;;2.63;1.33;;;;;;;-145.69;75.03;52295.84;5135609;27;20197;-77
2024/03/11 06:03:24;;;;;;;4.67;1.43;;;;;;;-145.69;74.47;52309.72;5135358;27;20208;-77
2024/03/11 06:05:51;;;;;;;3.93;1.30;;;;;;;-145.69;74.54;52285.97;5135601;27;20281;-77
2024/03/11 06:08:21;;;;;;;2.20;1.20;;;;;;;-145.69;74.79;52305.75;5118017;27;20197;-77
2024/03/11 06:10:48;;;;;;;2.77;1.40;;;;;;;-145.69;75.25;52287.94;5115215;28;20193;-77
2024/03/11 06:13:15;;;;;;;2.30;1.50;;;;;;;-145.69;75.67;52301.81;5132570;27;20200;-76
2024/03/11 06:15:41;;;;;;;3.97;1.30;;;;;;;-145.69;74.86;52293.88;5134737;27;20216;-76
2024/03/11 06:18:08;;;;;;;1.47;1.00;;;;;;;-145.69;75.43;52303.78;5135126;27;20215;-77
2024/03/11 06:20:34;;;;;;;1.30;1.20;;;;;;;-145.69;75.55;52303.78;5135165;27;20205;-77
2024/03/11 06:23:02;;;;;;;3.80;1.10;;;;;;;-145.69;75.45;52315.66;5134751;27;20192;-77
2024/03/11 06:25:30;;;;;;;1.30;1.20;;;;;;;-145.69;74.82;52303.78;5116330;27;20205;-77
2024/03/11 06:28:00;;;;;;;1.63;1.33;;;;;;;-145.69;74.64;52337.44;5124327;27;20609;-77
2024/03/11 06:30:27;;;;;;;3.73;1.50;;;;;;;-145.69;74.99;52307.75;5134935;27;20220;-77
2024/03/11 06:32:54;;;;;;;5.50;1.40;;;;;;;-145.69;75.02;52297.84;5134987;27;20645;-77
2024/03/11 06:35:21;;;;;;;3.13;1.60;;;;;;;-145.69;75.38;52319.63;5134240;27;20197;-79
2024/03/11 06:37:47;;;;;;;3.63;1.50;;;;;;;-145.69;75.23;52355.28;5134942;27;20200;-78
2024/03/11 06:40:17;;;;;;;1.70;1.43;;;;;;;-145.69;75.42;52301.81;5134235;27;20652;-78
2024/03/11 06:42:48;;;;;;;3.63;2.00;;;;;;;-145.69;75.23;52309.72;5134357;27;20246;-78
2024/03/11 06:45:19;;;;;;;2.43;1.83;;;;;;;-145.69;75.78;52297.84;5134912;27;20197;-77
2024/03/11 06:47:49;;;;;;;5.40;1.80;;;;;;;-145.69;75.65;52325.56;5134556;27;20197;-79
2024/03/11 06:50:18;;;;;;;2.83;1.77;;;;;;;-145.69;74.97;52295.84;5134350;27;20228;-78
2024/03/11 06:52:45;;;;;;;5.83;1.80;;;;;;;-145.69;75.31;52289.91;5134388;27;20200;-79
2024/03/11 06:55:12;;;;;;;1.57;1.43;;;;;;;-145.69;75.46;52333.47;5133517;27;20204;-80
2024/03/11 06:57:38;;;;;;;1.50;1.20;;;;;;;-145.69;75.47;52317.66;5130933;27;20232;-79
2024/03/11 07:00:17;;;;;;;2.40;1.63;;;;;;;-145.69;76.08;52321.59;5113552;28;20205;-79
2024/03/11 07:02:47;;;;;;;1.87;1.60;;;;;;;-145.69;75.62;52305.75;5113909;28;20204;-79
2024/03/11 07:05:14;;;;;;;2.00;1.40;;;;;;;-145.69;76.44;52299.81;5113778;28;20201;-79
2024/03/11 07:07:42;;;;;;;4.87;1.60;;;;;;;-145.69;76.17;52305.75;5113776;28;20252;-78
2024/03/11 07:10:10;;;;;;;3.23;1.40;;;;;;;-145.69;76.12;52317.66;5113494;28;20204;-79
2024/03/11 07:12:38;;;;;;;3.37;1.43;;;;;;;-145.69;76.39;52317.66;5113300;28;20235;-79
2024/03/11 07:15:07;;;;;;;2.60;1.70;;;;;;;-145.69;75.97;52262.19;5114161;27;20205;-78
2024/03/11 07:17:37;;;;;;;2.63;1.43;;;;;;;-145.69;76.45;52327.53;5113077;28;20240;-80
2024/03/11 07:20:07;;;;;;;1.50;1.30;;;;;;;-145.69;76.27;52309.72;5113556;28;20221;-78
2024/03/11 07:22:34;;;;;;;2.37;1.57;;;;;;;-145.69;76.28;52285.97;5113429;28;20751;-78
2024/03/11 07:25:01;;;;;;;1.90;1.27;;;;;;;-145.69;76.97;52289.91;5113550;28;20643;-78
2024/03/11 07:27:27;;;;;;;1.33;1.20;;;;;;;-145.69;76.84;52315.66;5122274;27;20208;-79
2024/03/11 07:29:56;;;;;;;1.40;1.10;;;;;;;-145.69;76.75;52345.38;5133343;27;20193;-78
2024/03/11 07:32:25;;;;;;;4.23;1.17;;;;;;;-145.69;76.46;52313.69;5124657;27;20202;-80
2024/03/11 07:34:51;;;;;;;3.80;1.37;;;;;;;-145.69;76.66;52297.84;5121180;27;20576;-78
2024/03/11 07:37:17;;;;;;;3.83;1.50;;;;;;;-145.69;76.93;52301.81;5133704;27;20221;-78
2024/03/11 07:39:44;;;;;;;2.03;1.30;;;;;;;-145.69;76.78;52289.91;5133550;27;20204;-79
2024/03/11 07:42:11;;;;;;;5.67;1.57;;;;;;;-145.69;76.28;52282.00;5133372;27;20192;-79
2024/03/11 07:44:37;;;;;;;1.97;1.00;;;;;;;-145.69;76.89;52266.16;5133717;27;20199;-79
2024/03/11 07:47:07;;;;;;;1.67;1.10;;;;;;;-145.69;77.15;52299.81;5133385;27;20208;-79
2024/03/11 07:49:35;;;;;;;4.50;1.77;;;;;;;-145.69;77.38;52283.97;5122149;27;20231;-78
2024/03/11 07:52:02;;;;;;;4.43;1.47;;;;;;;-145.69;77.38;52282.00;5132145;27;20192;-78
2024/03/11 07:54:30;;;;;;;1.97;1.30;;;;;;;-145.69;76.73;52309.72;5133121;27;20200;-78
2024/03/11 07:56:56;;;;;;;1.93;1.40;;;;;;;-145.69;76.78;52282.00;5133619;27;20259;-79
2024/03/11 07:59:23;;;;;;;1.50;1.10;;;;;;;-145.69;76.90;52272.09;5133245;28;20189;-79
2024/03/11 08:01:52;;;;;;;1.20;1.10;;;;;;;-145.69;76.01;52299.81;5133603;28;20287;-77
2024/03/11 08:04:19;;;;;;;2.63;1.30;;;;;;;-145.69;76.99;52280.00;5133437;27;20570;-78
2024/03/11 08:06:49;;;;;;;1.50;1.20;;;;;;;-145.69;77.18;52293.88;5121585;28;20213;-78
2024/03/11 08:09:16;;;;;;;2.77;1.23;;;;;;;-145.69;76.79;52307.75;5116828;28;20201;-78
2024/03/11 08:11:43;;;;;;;2.10;1.10;;;;;;;-145.69;77.20;52266.16;5130920;27;20196;-79
2024/03/11 08:14:11;;;;;;;4.13;1.50;;;;;;;-145.69;76.59;52315.66;5137006;27;20200;-80
2024/03/11 08:16:40;;;;;;;1.53;1.13;;;;;;;-145.69;76.47;52307.75;5137434;27;20645;-79
2024/03/11 08:19:07;;;;;;;1.77;0.97;;;;;;;-145.69;75.97;52285.97;5137543;27;20196;-79
2024/03/11 08:21:40;;;;;;;2.00;1.20;;;;;;;-145.69;75.88;52291.91;5137279;27;20196;-79
2024/03/11 08:24:11;;;;;;;2.00;1.10;;;;;;;-145.69;75.43;52258.22;5136416;27;20655;-79
2024/03/11 08:26:38;;;;;;;2.47;1.10;;;;;;;-145.69;75.86;52301.81;5137620;27;20231;-79
2024/03/11 08:29:04;;;;;;;2.30;1.07;;;;;;;-145.69;74.56;52264.16;5136977;27;20207;-79
2024/03/11 08:31:30;;;;;;;1.23;0.93;;;;;;;-145.69;74.41;52274.06;5136970;27;20671;-79
2024/03/11 08:33:57;;;;;;;1.10;0.90;;;;;;;-145.69;73.81;52266.16;5137117;27;20193;-79
2024/03/11 08:36:25;;;;;;;1.20;0.93;;;;;;;-145.69;73.70;52264.16;5136988;27;20217;-79
2024/03/11 08:38:53;;;;;;;1.03;1.00;;;;;;;-145.69;74.65;52264.16;5137221;27;20215;-80
2024/03/11 08:41:21;;;;;;;4.33;1.73;;;;;;;-145.69;73.85;52278.03;5119649;27;20205;-80
2024/03/11 08:43:49;;;;;;;1.00;0.87;;;;;;;-145.69;72.58;52248.34;5116596;28;20201;-80
2024/03/11 08:46:16;;;;;;;2.15;0.90;;;;;;;-145.69;73.50;52285.97;5115449;28;20438;-80
2024/03/11 08:48:44;;;;;;;1.50;1.30;;;;;;;-145.69;73.70;52278.03;5116103;28;20656;-80
2024/03/11 08:51:12;;;;;;;6.23;1.30;;;;;;;-145.69;71.96;52264.16;5116230;28;20320;-80
2024/03/11 08:53:42;;;;;;;1.30;1.20;;;;;;;-145.69;70.95;52270.13;5116410;28;20239;-80
2024/03/11 08:56:10;;;;;;;1.80;1.10;;;;;;;-145.69;69.38;52266.16;5116129;28;20280;-80
2024/03/11 08:58:39;;;;;;;1.63;1.00;;;;;;;-145.69;69.95;52256.25;5130001;27;20201;-80
2024/03/11 09:01:06;;;;;;;2.93;1.20;;;;;;;-145.69;69.02;52230.50;5136541;27;20619;-80
2024/03/11 09:03:33;;;;;;;1.97;1.30;;;;;;;-145.69;68.27;52262.19;5136806;27;20196;-80
2024/03/11 09:06:00;;;;;;;3.73;1.17;;;;;;;-145.69;66.54;52234.47;5136889;27;20201;-80
2024/03/11 09:08:28;;;;;;;1.17;1.00;;;;;;;-145.69;66.85;52262.19;5136462;27;20231;-80
2024/03/11 09:10:54;;;;;;;1.60;1.20;;;;;;;-145.69;67.65;52256.25;5135857;27;20293;-81
2024/03/11 09:13:25;;;;;;;3.17;0.90;;;;;;;-145.69;67.19;52212.69;5135990;27;20204;-81
2024/03/11 09:15:54;;;;;;;2.73;1.23;;;;;;;-145.69;65.57;52246.34;5136102;27;20208;-81
2024/03/11 09:18:21;;;;;;;0.90;0.90;;;;;;;-145.69;67.08;52238.44;5135625;27;20285;-81
2024/03/11 09:20:50;;;;;;;2.13;1.10;;;;;;;-145.69;65.62;52254.28;5135782;27;20201;-80
2024/03/11 09:23:17;;;;;;;1.57;1.00;;;;;;;-145.69;63.64;52242.38;5136468;27;20597;-80
2024/03/11 09:25:43;;;;;;;1.23;1.13;;;;;;;-145.69;63.29;52258.22;5136025;27;20651;-81
2024/03/11 09:28:13;;;;;;;1.50;1.13;;;;;;;-145.69;63.74;52270.13;5135490;27;20203;-81
2024/03/11 09:30:41;;;;;;;1.47;1.30;;;;;;;-145.69;60.50;52246.34;5135787;27;20287;-81
2024/03/11 09:33:11;;;;;;;1.83;1.20;;;;;;;-145.69;61.92;52238.44;5135054;27;20228;-82
2024/03/11 09:35:40;;;;;;;1.47;1.10;;;;;;;-145.69;61.73;52226.53;5136058;27;20203;-81
2024/03/11 09:38:06;;;;;;;1.23;1.13;;;;;;;-145.69;60.94;52216.66;5135695;27;20311;-81
2024/03/11 09:40:33;;;;;;;1.40;1.30;;;;;;;-145.69;62.57;52206.75;5135612;27;20791;-80
2024/03/11 09:43:11;;;;;;;2.23;1.30;;;;;;;-145.69;58.13;52188.91;5135658;27;20212;-81
2024/03/11 09:45:42;;;;;;;3.67;1.10;;;;;;;-145.69;56.53;52216.66;5135900;27;20234;-80
2024/03/11 09:48:11;;;;;;;1.23;1.10;;;;;;;-145.69;56.20;52228.53;5134753;27;20218;-81
2024/03/11 09:50:40;;;;;;;3.20;1.37;;;;;;;-145.69;55.51;52202.78;5135425;27;20229;-82
2024/03/11 09:53:12;;;;;;;1.40;1.30;;;;;;;-145.69;52.79;52196.84;5135573;27;20193;-80
2024/03/11 09:55:39;;;;;;;1.63;1.20;;;;;;;-145.69;52.92;52188.91;5135747;27;20205;-81
2024/03/11 09:58:10;;;;;;;3.43;1.97;;;;;;;-145.69;52.06;52175.06;5134957;27;20719;-81
2024/03/11 10:00:48;;;;;;;1.73;1.60;;;;;;;-145.69;51.40;52220.59;5139397;27;20191;-81
2024/03/11 10:03:20;;;;;;;1.90;1.20;;;;;;;-145.69;50.98;52198.81;5151555;27;20193;-82
2024/03/11 10:05:56;;;;;;;2.10;1.27;;;;;;;-145.69;51.02;52206.75;5135088;27;20544;-83
2024/03/11 10:08:25;;;;;;;3.27;1.00;;;;;;;-145.69;51.13;52200.81;5135250;27;20684;-83
2024/03/11 10:11:10;;;;;;;1.50;1.20;;;;;;;-145.69;50.10;52175.06;5134504;27;20243;-82
2024/03/11 10:13:39;;;;;;;1.42;1.30;;;;;;;-145.69;49.38;52210.72;5135057;27;20193;-83
2024/03/11 10:16:18;;;;;;;3.47;1.30;;;;;;;-145.69;49.40;52173.09;5134667;27;20197;-83
2024/03/11 10:19:00;;;;;;;1.27;1.17;;;;;;;-145.69;47.42;52175.06;5133878;27;20234;-82
2024/03/11 10:21:28;;;;;;;2.53;1.17;;;;;;;-145.69;47.77;52186.94;5134370;27;20273;-83
2024/03/11 10:23:59;;;;;;;1.67;1.20;;;;;;;-145.69;47.20;52188.91;5135068;27;20207;-82
2024/03/11 10:26:28;;;;;;;3.72;1.20;;;;;;;-145.69;47.05;52155.25;5134642;27;20626;-82
2024/03/11 10:28:57;;;;;;;1.52;1.30;;;;;;;-145.69;47.61;52171.09;5134876;27;20283;-83
2024/03/11 10:31:27;;;;;;;1.05;0.93;;;;;;;-145.69;48.49;52165.16;5133567;27;20200;-82
2024/03/11 10:34:09;;;;;;;1.77;1.30;;;;;;;-145.69;47.33;52171.09;5134712;27;20197;-82
2024/03/11 10:36:39;;;;;;;1.33;0.80;;;;;;;-145.69;46.92;52157.25;5134726;27;20287;-82
2024/03/11 10:39:10;;;;;;;2.97;1.10;;;;;;;-145.69;46.72;52163.19;5134677;27;20197;-82
2024/03/11 10:41:38;;;;;;;2.92;0.90;;;;;;;-145.69;46.54;52167.13;5134622;27;20200;-85
2024/03/11 10:44:15;;;;;;;1.50;0.88;;;;;;;-145.69;46.44;52155.25;5134949;27;20196;-83
2024/03/11 10:46:41;;;;;;;1.48;1.00;;;;;;;-145.69;46.52;52143.38;5134832;27;20212;-83
2024/03/11 10:49:13;;;;;;;1.38;0.90;;;;;;;-145.69;46.85;52159.22;5134828;27;20204;-83
2024/03/11 10:51:44;;;;;;;2.38;0.90;;;;;;;-145.69;46.21;52179.03;5134024;27;20315;-80
2024/03/11 10:54:16;;;;;;;0.85;0.80;;;;;;;-145.69;45.18;52198.81;5134386;27;20200;-82
2024/03/11 10:56:44;;;;;;;2.63;1.05;;;;;;;-145.69;46.40;52171.09;5134187;27;20204;-81
2024/03/11 10:59:14;;;;;;;1.10;1.00;;;;;;;-145.69;47.96;52173.09;5134182;27;20206;-81
2024/03/11 11:01:48;;;;;;;6.32;1.00;;;;;;;-145.69;48.90;52171.09;5133167;27;20292;-81
2024/03/11 11:04:21;;;;;;;2.05;0.80;;;;;;;-145.69;47.69;52177.03;5133126;27;20196;-81
2024/03/11 11:06:51;;;;;;;1.33;0.85;;;;;;;-145.69;47.68;52159.22;5133302;27;20260;-80
2024/03/11 11:09:19;;;;;;;2.80;1.02;;;;;;;-145.69;46.90;52165.16;5134091;27;20193;-80
2024/03/11 11:11:51;;;;;;;1.10;0.95;;;;;;;-145.69;47.26;52196.84;5133647;27;20196;-81
2024/03/11 11:14:18;;;;;;;2.80;1.00;;;;;;;-145.69;46.68;52143.38;5134215;27;20201;-80
2024/03/11 11:16:45;;;;;;;1.27;0.88;;;;;;;-145.69;45.47;52123.56;5134005;27;20208;-81
2024/03/11 11:19:17;;;;;;;3.00;1.10;;;;;;;-145.69;46.11;52139.41;5122267;27;20281;-82
2024/03/11 11:21:46;;;;;;;2.28;1.00;;;;;;;-145.69;44.98;52143.38;5113042;28;20617;-81